createdAt,value
2019-04-09T00:00:12.738Z,81.51
2019-04-09T00:01:12.700Z,81.55
2019-04-09T00:02:13.411Z,81.89
2019-04-09T00:03:13.347Z,81.89
2019-04-09T00:04:12.561Z,82.41
2019-04-09T00:05:12.516Z,82.08
2019-04-09T00:06:12.643Z,82.08
2019-04-09T00:07:12.627Z,82.18
2019-04-09T00:08:13.302Z,81.79
2019-04-09T00:09:12.416Z,82.46
2019-04-09T00:10:12.399Z,82.18
2019-04-09T00:11:12.243Z,82.56
2019-04-09T00:12:12.202Z,82.84
2019-04-09T00:13:12.157Z,83.04
2019-04-09T00:14:12.111Z,83.13
2019-04-09T00:15:12.064Z,83.42
2019-04-09T00:16:12.470Z,83.42
2019-04-09T00:17:11.974Z,83.42
2019-04-09T00:18:15.577Z,83.33
2019-04-09T00:19:11.884Z,83.51
2019-04-09T00:20:12.433Z,83.70
2019-04-09T00:21:12.638Z,84.19
2019-04-09T00:22:12.472Z,84.23
2019-04-09T00:23:11.704Z,84.43
2019-04-09T00:24:12.458Z,84.05
2019-04-09T00:25:12.406Z,83.95
2019-04-09T00:26:11.571Z,84.52
2019-04-09T00:27:11.524Z,84.43
2019-04-09T00:28:11.911Z,84.62
2019-04-09T00:29:11.447Z,84.52
2019-04-09T00:30:12.831Z,85.10
2019-04-09T00:31:12.089Z,85.10
2019-04-09T00:32:12.103Z,85.10
2019-04-09T00:33:11.254Z,85.00
2019-04-09T00:34:11.289Z,85.48
2019-04-09T00:35:11.302Z,85.10
2019-04-09T00:37:11.076Z,85.86
2019-04-09T00:38:11.029Z,86.01
2019-04-09T00:39:10.981Z,85.91
2019-04-09T00:40:10.940Z,86.49
2019-04-09T00:41:11.166Z,86.49
2019-04-09T00:42:11.038Z,87.06
2019-04-09T00:43:10.802Z,86.77
2019-04-09T00:44:10.758Z,87.06
2019-04-09T00:45:11.534Z,87.15
2019-04-09T00:46:11.447Z,87.15
2019-04-09T00:47:10.620Z,86.68
2019-04-09T00:48:11.489Z,87.25
2019-04-09T00:49:11.428Z,87.06
2019-04-09T00:50:10.502Z,87.44
2019-04-09T00:51:10.516Z,87.25
2019-04-09T00:52:10.392Z,88.20
2019-04-09T00:53:10.348Z,87.82
2019-04-09T00:54:10.302Z,88.01
2019-04-09T00:55:10.566Z,88.20
2019-04-09T00:56:10.571Z,88.11
2019-04-09T00:57:10.802Z,87.97
2019-04-09T00:58:10.120Z,88.16
2019-04-09T00:59:10.075Z,88.35
2019-04-09T01:00:10.099Z,88.26
2019-04-09T01:01:10.054Z,88.35
2019-04-09T01:02:11.110Z,88.64
2019-04-09T01:03:09.985Z,88.35
2019-04-09T01:04:09.848Z,88.45
2019-04-09T01:05:09.806Z,88.54
2019-04-09T01:06:09.774Z,88.73
2019-04-09T01:07:09.712Z,89.21
2019-04-09T01:08:09.667Z,89.12
2019-04-09T01:09:10.345Z,89.21
2019-04-09T01:10:10.202Z,89.02
2019-04-09T01:11:09.527Z,89.69
2019-04-09T01:12:10.217Z,89.59
2019-04-09T01:13:10.567Z,89.50
2019-04-09T01:14:09.395Z,89.78
2019-04-09T01:15:09.350Z,89.69
2019-04-09T01:16:09.568Z,89.59
2019-04-09T01:17:09.281Z,89.97
2019-04-09T01:18:09.208Z,89.97
2019-04-09T01:19:16.201Z,90.12
2019-04-09T01:20:09.254Z,90.41
2019-04-09T01:21:09.071Z,90.12
2019-04-09T01:22:09.031Z,90.88
2019-04-09T01:23:10.120Z,90.31
2019-04-09T01:24:08.939Z,90.50
2019-04-09T01:25:08.888Z,90.31
2019-04-09T01:26:09.600Z,90.12
2019-04-09T01:27:15.418Z,90.88
2019-04-09T01:28:08.752Z,90.50
2019-04-09T01:29:09.569Z,90.88
2019-04-09T01:30:09.616Z,90.88
2019-04-09T01:31:08.765Z,90.88
2019-04-09T01:32:08.842Z,90.88
2019-04-09T01:33:08.675Z,90.31
2019-04-09T01:34:08.474Z,90.12
2019-04-09T01:35:08.436Z,90.88
2019-04-09T01:36:08.390Z,90.59
2019-04-09T01:37:08.470Z,90.12
2019-04-09T01:38:08.295Z,90.31
2019-04-09T01:39:08.259Z,90.41
2019-04-09T01:40:08.206Z,90.69
2019-04-09T01:41:08.155Z,90.59
2019-04-09T01:42:08.678Z,91.27
2019-04-09T01:43:08.070Z,91.17
2019-04-09T01:44:08.026Z,91.17
2019-04-09T01:45:08.467Z,90.69
2019-04-09T01:47:08.364Z,91.07
2019-04-09T01:48:07.837Z,91.17
2019-04-09T01:49:08.087Z,90.98
2019-04-09T01:50:08.612Z,90.98
2019-04-09T01:51:08.461Z,91.93
2019-04-09T01:52:07.686Z,91.17
2019-04-09T01:53:07.601Z,91.46
2019-04-09T01:54:07.562Z,91.27
2019-04-09T01:55:07.521Z,91.22
2019-04-09T01:56:08.555Z,91.98
2019-04-09T01:57:07.717Z,91.64
2019-04-09T01:58:08.422Z,91.22
2019-04-09T01:59:07.324Z,90.93
2019-04-09T02:00:07.514Z,91.22
2019-04-09T02:01:07.426Z,91.03
2019-04-09T02:02:07.190Z,90.36
2019-04-09T02:03:07.142Z,90.93
2019-04-09T02:04:07.939Z,90.74
2019-04-09T02:05:07.049Z,91.03
2019-04-09T02:06:08.114Z,90.45
2019-04-09T02:07:07.885Z,91.03
2019-04-09T02:08:07.785Z,90.84
2019-04-09T02:09:06.866Z,90.93
2019-04-09T02:10:06.825Z,91.13
2019-04-09T02:11:08.532Z,90.93
2019-04-09T02:12:06.725Z,91.22
2019-04-09T02:13:07.347Z,91.03
2019-04-09T02:14:07.194Z,91.13
2019-04-09T02:15:06.986Z,90.84
2019-04-09T02:16:06.540Z,91.03
2019-04-09T02:17:06.501Z,91.13
2019-04-09T02:18:07.241Z,91.22
2019-04-09T02:19:07.162Z,91.79
2019-04-09T02:20:06.464Z,91.13
2019-04-09T02:21:06.751Z,90.93
2019-04-09T02:22:06.268Z,90.93
2019-04-09T02:23:06.215Z,91.13
2019-04-09T02:24:07.156Z,91.13
2019-04-09T02:25:06.229Z,91.74
2019-04-09T02:26:06.173Z,90.93
2019-04-09T02:27:06.031Z,91.84
2019-04-09T02:28:05.985Z,91.84
2019-04-09T02:29:06.625Z,91.46
2019-04-09T02:30:06.502Z,92.03
2019-04-09T02:31:06.211Z,92.13
2019-04-09T02:32:07.069Z,91.74
2019-04-09T02:33:07.170Z,91.74
2019-04-09T02:34:07.124Z,91.65
2019-04-09T02:35:05.823Z,91.84
2019-04-09T02:36:06.165Z,91.94
2019-04-09T02:37:07.019Z,91.94
2019-04-09T02:38:06.090Z,92.60
2019-04-09T02:39:05.479Z,92.69
2019-04-09T02:40:05.431Z,92.50
2019-04-09T02:41:05.388Z,92.50
2019-04-09T02:42:06.277Z,91.84
2019-04-09T02:43:06.138Z,92.50
2019-04-09T02:44:06.199Z,92.69
2019-04-09T02:45:06.266Z,92.69
2019-04-09T02:46:06.128Z,92.79
2019-04-09T02:47:05.101Z,92.79
2019-04-09T02:48:05.157Z,92.79
2019-04-09T02:50:06.061Z,92.98
2019-04-09T02:51:05.199Z,92.98
2019-04-09T02:52:05.065Z,92.84
2019-04-09T02:53:04.841Z,93.13
2019-04-09T02:54:04.777Z,92.84
2019-04-09T02:55:04.728Z,93.17
2019-04-09T02:56:05.620Z,93.13
2019-04-09T02:57:05.600Z,93.13
2019-04-09T02:58:04.592Z,93.03
2019-04-09T02:59:04.543Z,93.51
2019-04-09T03:00:05.449Z,93.89
2019-04-09T03:01:04.584Z,94.17
2019-04-09T03:02:05.495Z,94.27
2019-04-09T03:03:04.359Z,93.98
2019-04-09T03:04:04.497Z,93.89
2019-04-09T03:05:04.269Z,93.79
2019-04-09T03:06:05.022Z,94.08
2019-04-09T03:07:05.282Z,94.93
2019-04-09T03:08:04.299Z,94.93
2019-04-09T03:09:04.122Z,94.74
2019-04-09T03:10:04.029Z,94.74
2019-04-09T03:11:04.085Z,94.65
2019-04-09T03:12:04.836Z,94.74
2019-04-09T03:13:03.891Z,94.65
2019-04-09T03:14:03.898Z,94.74
2019-04-09T03:15:03.796Z,94.46
2019-04-09T03:16:04.793Z,94.84
2019-04-09T03:17:03.703Z,94.65
2019-04-09T03:18:04.618Z,95.32
2019-04-09T03:19:04.531Z,94.93
2019-04-09T03:20:03.676Z,94.74
2019-04-09T03:21:03.545Z,94.56
2019-04-09T03:22:04.551Z,95.51
2019-04-09T03:23:04.530Z,95.22
2019-04-09T03:24:03.378Z,95.41
2019-04-09T03:25:03.643Z,95.12
2019-04-09T03:26:03.555Z,95.22
2019-04-09T03:27:03.410Z,95.65
2019-04-09T03:28:06.713Z,96.27
2019-04-09T03:29:03.140Z,95.51
2019-04-09T03:31:04.210Z,96.51
2019-04-09T03:32:03.827Z,96.70
2019-04-09T03:33:04.799Z,96.31
2019-04-09T03:34:04.083Z,96.41
2019-04-09T03:35:03.040Z,96.60
2019-04-09T03:36:02.847Z,96.60
2019-04-09T03:37:02.765Z,97.08
2019-04-09T03:38:02.718Z,96.89
2019-04-09T03:39:02.971Z,96.89
2019-04-09T03:40:02.934Z,96.79
2019-04-09T03:41:02.590Z,96.79
2019-04-09T03:42:02.530Z,97.65
2019-04-09T03:43:02.494Z,97.27
2019-04-09T03:44:02.517Z,97.36
2019-04-09T03:45:02.591Z,98.03
2019-04-09T03:46:03.253Z,97.17
2019-04-09T03:47:03.183Z,98.03
2019-04-09T03:48:03.163Z,97.84
2019-04-09T03:49:02.411Z,98.50
2019-04-09T03:50:03.177Z,98.50
2019-04-09T03:51:02.316Z,98.50
2019-04-09T03:52:02.336Z,98.32
2019-04-09T03:53:02.012Z,98.50
2019-04-09T03:54:01.968Z,98.79
2019-04-09T03:55:01.993Z,98.88
2019-04-09T03:56:02.875Z,98.69
2019-04-09T03:57:01.824Z,99.84
2019-04-09T03:58:12.722Z,99.36
2019-04-09T03:59:02.455Z,99.27
2019-04-09T04:00:02.616Z,99.93
2019-04-09T04:01:01.718Z,99.84
2019-04-09T04:03:01.544Z,99.65
2019-04-09T04:04:01.495Z,99.99
2019-04-09T04:05:01.446Z,99.65
2019-04-09T04:06:01.401Z,99.99
2019-04-09T04:07:05.358Z,99.99
2019-04-09T04:08:01.487Z,99.99
2019-04-09T04:09:01.259Z,99.99
2019-04-09T04:10:01.950Z,99.99
2019-04-09T04:11:01.169Z,99.99
2019-04-09T04:12:01.128Z,99.99
2019-04-09T04:13:01.971Z,99.99
2019-04-09T04:14:02.021Z,99.99
2019-04-09T04:15:01.466Z,99.99
2019-04-09T04:17:01.681Z,99.99
2019-04-09T04:18:00.968Z,99.99
2019-04-09T04:19:01.003Z,99.99
2019-04-09T04:20:00.742Z,99.99
2019-04-09T04:21:00.693Z,99.99
2019-04-09T04:22:00.648Z,99.99
2019-04-09T04:23:00.599Z,99.99
2019-04-09T04:24:00.558Z,99.99
2019-04-09T04:25:01.589Z,99.99
2019-04-09T04:26:00.617Z,99.99
2019-04-09T04:27:00.928Z,99.99
2019-04-09T04:28:00.843Z,99.99
2019-04-09T04:29:00.840Z,99.99
2019-04-09T04:30:00.268Z,99.99
2019-04-09T04:31:01.130Z,99.99
2019-04-09T04:32:00.524Z,99.99
2019-04-09T04:33:00.372Z,99.99
2019-04-09T04:34:00.083Z,99.99
2019-04-09T04:35:00.032Z,99.99
2019-04-09T04:35:59.984Z,99.99
2019-04-09T04:36:59.935Z,99.99
2019-04-09T04:38:00.279Z,99.99
2019-04-09T04:38:59.863Z,99.99
2019-04-09T04:39:59.798Z,99.99
2019-04-09T04:41:00.079Z,99.99
2019-04-09T04:41:59.759Z,99.99
2019-04-09T04:43:00.600Z,99.99
2019-04-09T04:43:59.781Z,99.99
2019-04-09T04:44:59.564Z,99.99
2019-04-09T04:46:00.536Z,99.99
2019-04-09T04:46:59.468Z,99.99
2019-04-09T04:49:00.334Z,99.99
2019-04-09T04:50:00.154Z,99.99
2019-04-09T04:50:59.905Z,99.99
2019-04-09T04:52:00.565Z,99.99
2019-04-09T04:53:00.041Z,99.99
2019-04-09T04:53:59.439Z,99.99
2019-04-09T04:55:00.050Z,99.99
2019-04-09T04:55:59.459Z,99.99
2019-04-09T04:56:58.995Z,99.99
2019-04-09T04:57:59.942Z,99.99
2019-04-09T04:59:00.141Z,99.99
2019-04-09T04:59:58.848Z,99.99
2019-04-09T05:00:59.658Z,99.99
2019-04-09T05:01:58.754Z,99.99
2019-04-09T05:02:58.706Z,99.99
2019-04-09T05:03:58.658Z,99.99
2019-04-09T05:04:58.613Z,99.99
2019-04-09T05:05:59.505Z,99.99
2019-04-09T05:06:58.515Z,99.99
2019-04-09T05:07:59.275Z,99.99
2019-04-09T05:08:58.419Z,99.99
2019-04-09T05:09:59.236Z,99.99
2019-04-09T05:10:58.332Z,99.99
2019-04-09T05:11:59.212Z,99.99
2019-04-09T05:13:58.187Z,99.99
2019-04-09T05:14:59.174Z,99.99
2019-04-09T05:15:58.088Z,99.99
2019-04-09T05:16:58.290Z,99.99
2019-04-09T05:17:58.623Z,99.99
2019-04-09T05:18:57.974Z,99.99
2019-04-09T05:19:57.899Z,99.99
2019-04-09T05:20:57.855Z,99.99
2019-04-09T05:21:58.624Z,99.99
2019-04-09T05:22:57.769Z,99.99
2019-04-09T05:23:58.264Z,99.99
2019-04-09T05:24:58.643Z,99.99
2019-04-09T05:25:57.791Z,99.99
2019-04-09T05:26:58.209Z,99.99
2019-04-09T05:27:58.374Z,99.99
2019-04-09T05:29:04.124Z,99.99
2019-04-09T05:29:57.423Z,99.99
2019-04-09T05:30:57.382Z,99.99
2019-04-09T05:31:57.331Z,99.99
2019-04-09T05:32:59.074Z,99.99
2019-04-09T05:33:57.235Z,99.99
2019-04-09T05:34:57.187Z,99.99
2019-04-09T05:35:57.136Z,99.99
2019-04-09T05:36:58.046Z,99.99
2019-04-09T05:37:57.515Z,99.99
2019-04-09T05:38:57.822Z,99.99
2019-04-09T05:40:01.038Z,99.99
2019-04-09T05:40:57.195Z,99.99
2019-04-09T05:41:56.851Z,99.99
2019-04-09T05:42:57.371Z,99.99
2019-04-09T05:43:56.757Z,99.99
2019-04-09T05:44:57.164Z,99.99
2019-04-09T05:45:57.367Z,99.99
2019-04-09T05:46:56.613Z,99.99
2019-04-09T05:47:56.968Z,99.99
2019-04-09T05:48:56.521Z,99.99
2019-04-09T05:49:56.471Z,99.99
2019-04-09T05:50:56.422Z,99.99
2019-04-09T05:51:56.376Z,99.99
2019-04-09T05:52:56.328Z,99.99
2019-04-09T05:53:56.280Z,99.99
2019-04-09T05:54:56.233Z,99.99
2019-04-09T05:55:56.190Z,99.99
2019-04-09T05:56:56.470Z,99.99
2019-04-09T05:57:57.038Z,99.99
2019-04-09T05:59:04.817Z,99.99
2019-04-09T05:59:55.999Z,99.99
2019-04-09T06:00:56.793Z,99.99
2019-04-09T06:01:56.681Z,99.99
2019-04-09T06:02:58.342Z,99.99
2019-04-09T06:03:55.806Z,99.99
2019-04-09T06:04:56.235Z,99.99
2019-04-09T06:05:55.834Z,99.99
2019-04-09T06:06:56.437Z,99.99
2019-04-09T06:07:55.667Z,99.99
2019-04-09T06:08:55.570Z,99.99
2019-04-09T06:09:55.606Z,99.99
2019-04-09T06:10:55.735Z,99.99
2019-04-09T06:11:56.213Z,99.99
2019-04-09T06:12:55.500Z,99.99
2019-04-09T06:13:55.330Z,99.99
2019-04-09T06:14:55.507Z,99.99
2019-04-09T06:15:55.395Z,99.99
2019-04-09T06:16:55.189Z,99.99
2019-04-09T06:17:55.140Z,99.99
2019-04-09T06:18:55.089Z,99.99
2019-04-09T06:19:55.044Z,99.99
2019-04-09T06:20:54.997Z,99.99
2019-04-09T06:21:55.095Z,99.99
2019-04-09T06:22:54.943Z,99.99
2019-04-09T06:23:54.853Z,99.99
2019-04-09T06:24:54.805Z,99.99
2019-04-09T06:25:54.882Z,99.99
2019-04-09T06:26:55.685Z,99.99
2019-04-09T06:27:55.352Z,99.99
2019-04-09T06:28:54.750Z,99.99
2019-04-09T06:29:54.567Z,99.99
2019-04-09T06:30:54.521Z,99.99
2019-04-09T06:31:55.642Z,99.99
2019-04-09T06:32:55.332Z,99.99
2019-04-09T06:33:55.137Z,99.99
2019-04-09T06:34:54.377Z,99.99
2019-04-09T06:35:55.261Z,99.99
2019-04-09T06:36:54.262Z,99.99
2019-04-09T06:37:54.192Z,99.99
2019-04-09T06:38:54.445Z,99.99
2019-04-09T06:39:54.827Z,99.99
2019-04-09T06:40:54.929Z,99.99
2019-04-09T06:41:53.998Z,99.99
2019-04-09T06:42:54.648Z,99.99
2019-04-09T06:43:54.628Z,99.99
2019-04-09T06:44:53.855Z,99.99
2019-04-09T06:45:53.808Z,99.99
2019-04-09T06:46:53.941Z,99.99
2019-04-09T06:47:53.731Z,99.99
2019-04-09T06:48:53.664Z,99.99
2019-04-09T06:49:54.684Z,99.99
2019-04-09T06:50:53.571Z,99.99
2019-04-09T06:51:55.186Z,99.99
2019-04-09T06:52:53.480Z,99.99
2019-04-09T06:53:53.431Z,99.99
2019-04-09T06:54:59.056Z,99.99
2019-04-09T06:55:53.360Z,99.99
2019-04-09T06:56:55.047Z,99.99
2019-04-09T06:57:54.025Z,99.99
2019-04-09T06:58:53.191Z,99.99
2019-04-09T06:59:53.145Z,99.99
2019-04-09T07:00:53.109Z,99.99
2019-04-09T07:01:53.224Z,99.99
2019-04-09T07:02:53.202Z,99.99
2019-04-09T07:03:53.097Z,99.99
2019-04-09T07:04:52.907Z,99.99
2019-04-09T07:05:55.555Z,99.99
2019-04-09T07:06:53.477Z,99.99
2019-04-09T07:07:52.768Z,99.99
2019-04-09T07:08:53.320Z,99.99
2019-04-09T07:09:53.576Z,99.99
2019-04-09T07:10:52.625Z,99.99
2019-04-09T07:11:53.137Z,99.99
2019-04-09T07:12:53.345Z,99.99
2019-04-09T07:13:52.482Z,99.99
2019-04-09T07:14:54.697Z,99.99
2019-04-09T07:15:52.786Z,99.99
2019-04-09T07:16:52.339Z,99.99
2019-04-09T07:17:52.294Z,99.99
2019-04-09T07:18:52.246Z,99.99
2019-04-09T07:19:52.200Z,99.99
2019-04-09T07:20:52.154Z,99.99
2019-04-09T07:21:52.828Z,99.99
2019-04-09T07:22:53.204Z,99.99
2019-04-09T07:23:52.267Z,99.99
2019-04-09T07:24:52.229Z,99.99
2019-04-09T07:25:52.290Z,99.99
2019-04-09T07:26:52.813Z,99.79
2019-04-09T07:27:54.657Z,99.99
2019-04-09T07:28:54.902Z,99.60
2019-04-09T07:29:58.668Z,99.03
2019-04-09T07:30:53.987Z,98.36
2019-04-09T07:31:51.636Z,98.65
2019-04-09T07:32:52.207Z,97.99
2019-04-09T07:33:51.543Z,98.55
2019-04-09T07:34:52.571Z,98.27
2019-04-09T07:35:51.451Z,98.08
2019-04-09T07:36:51.402Z,97.60
2019-04-09T07:37:51.356Z,97.51
2019-04-09T07:38:53.304Z,96.75
2019-04-09T07:39:51.558Z,96.46
2019-04-09T07:40:51.214Z,95.89
2019-04-09T07:41:52.333Z,95.70
2019-04-09T07:42:51.194Z,95.12
2019-04-09T07:43:54.544Z,95.22
2019-04-09T07:44:51.972Z,95.03
2019-04-09T07:45:51.662Z,93.74
2019-04-09T07:46:50.936Z,94.84
2019-04-09T07:47:55.469Z,94.22
2019-04-09T07:48:50.842Z,93.79
2019-04-09T07:49:51.395Z,93.93
2019-04-09T07:50:51.390Z,94.13
2019-04-09T07:51:53.131Z,94.08
2019-04-09T07:52:53.279Z,94.03
2019-04-09T07:53:51.615Z,93.46
2019-04-09T07:54:51.504Z,93.74
2019-04-09T07:55:56.107Z,93.93
2019-04-09T07:56:50.472Z,94.13
2019-04-09T07:57:50.560Z,93.37
2019-04-09T07:58:51.391Z,93.27
2019-04-09T08:00:00.015Z,93.17
2019-04-09T08:00:50.459Z,93.27
2019-04-09T08:01:50.241Z,92.89
2019-04-09T08:02:50.567Z,93.60
2019-04-09T08:03:51.240Z,91.88
2019-04-09T08:04:51.184Z,91.22
2019-04-09T08:05:51.835Z,90.64
2019-04-09T08:06:51.303Z,90.84
2019-04-09T08:07:54.350Z,90.36
2019-04-09T08:08:50.747Z,90.26
2019-04-09T08:09:49.866Z,90.45
2019-04-09T08:10:50.485Z,89.89
2019-04-09T08:11:49.775Z,90.45
2019-04-09T08:12:50.158Z,90.26
2019-04-09T08:13:52.628Z,89.40
2019-04-09T08:14:49.639Z,89.12
2019-04-09T08:15:49.603Z,89.22
2019-04-09T08:16:50.521Z,88.64
2019-04-09T08:17:51.508Z,88.45
2019-04-09T08:18:49.450Z,87.69
2019-04-09T08:19:49.412Z,87.88
2019-04-09T08:20:49.356Z,87.98
2019-04-09T08:21:49.310Z,87.88
2019-04-09T08:22:50.172Z,88.74
2019-04-09T08:23:51.686Z,88.36
2019-04-09T08:24:53.600Z,88.07
2019-04-09T08:25:49.125Z,89.31
2019-04-09T08:26:49.080Z,89.26
2019-04-09T08:27:49.034Z,89.07
2019-04-09T08:28:52.167Z,87.64
2019-04-09T08:29:48.959Z,88.78
2019-04-09T08:30:49.563Z,87.74
2019-04-09T08:32:04.270Z,86.59
2019-04-09T08:32:49.657Z,85.83
2019-04-09T08:33:51.108Z,85.16
2019-04-09T08:34:48.712Z,85.35
2019-04-09T08:35:48.664Z,85.30
2019-04-09T08:36:49.687Z,84.63
2019-04-09T08:37:52.540Z,85.39
2019-04-09T08:38:49.667Z,84.63
2019-04-09T08:39:48.927Z,84.92
2019-04-09T08:40:50.835Z,84.53
2019-04-09T08:41:48.676Z,84.16
2019-04-09T08:42:48.755Z,83.01
2019-04-09T08:43:48.299Z,82.82
2019-04-09T08:44:52.032Z,83.58
2019-04-09T08:45:49.598Z,83.58
2019-04-09T08:46:48.426Z,83.39
2019-04-09T08:47:48.115Z,83.39
2019-04-09T08:48:48.375Z,83.01
2019-04-09T08:49:51.899Z,81.96
2019-04-09T08:50:47.977Z,82.43
2019-04-09T08:51:47.933Z,82.06
2019-04-09T08:52:48.602Z,82.34
2019-04-09T08:53:48.760Z,81.52
2019-04-09T08:54:48.633Z,81.14
2019-04-09T08:55:47.752Z,81.20
2019-04-09T08:56:48.416Z,80.85
2019-04-09T08:57:49.314Z,80.57
2019-04-09T08:58:48.164Z,81.01
2019-04-09T08:59:47.577Z,81.14
2019-04-09T09:01:21.310Z,81.33
2019-04-09T09:02:01.625Z,81.14
2019-04-09T09:02:51.397Z,81.04
2019-04-09T09:03:53.568Z,81.43
2019-04-09T09:04:53.984Z,80.38
2019-04-09T09:05:54.664Z,79.99
2019-04-09T09:06:50.780Z,79.61
2019-04-09T09:07:48.273Z,78.56
2019-04-09T09:08:47.164Z,79.56
2019-04-09T09:09:49.280Z,79.71
2019-04-09T09:10:51.245Z,78.85
2019-04-09T09:11:47.594Z,79.08
2019-04-09T09:12:47.330Z,78.51
2019-04-09T09:13:47.745Z,78.79
2019-04-09T09:14:47.787Z,78.85
2019-04-09T09:15:47.072Z,78.13
2019-04-09T09:16:47.621Z,78.22
2019-04-09T09:17:50.251Z,77.94
2019-04-09T09:18:47.789Z,78.03
2019-04-09T09:19:47.213Z,78.13
2019-04-09T09:20:47.885Z,77.74
2019-04-09T09:21:46.570Z,76.60
2019-04-09T09:22:48.096Z,77.65
2019-04-09T09:23:47.579Z,77.36
2019-04-09T09:24:51.313Z,77.17
2019-04-09T09:25:47.424Z,76.88
2019-04-09T09:26:47.085Z,77.36
2019-04-09T09:27:46.302Z,76.40
2019-04-09T09:28:46.987Z,76.69
2019-04-09T09:29:47.287Z,76.31
2019-04-09T09:30:58.833Z,76.16
2019-04-09T09:31:46.944Z,75.93
2019-04-09T09:32:47.629Z,75.78
2019-04-09T09:33:49.334Z,75.59
2019-04-09T09:34:47.121Z,75.10
2019-04-09T09:35:45.943Z,75.87
2019-04-09T09:36:45.905Z,75.78
2019-04-09T09:37:50.183Z,75.59
2019-04-09T09:38:46.174Z,75.68
2019-04-09T09:39:45.761Z,75.30
2019-04-09T09:40:45.839Z,75.68
2019-04-09T09:41:46.519Z,75.68
2019-04-09T09:42:46.619Z,75.68
2019-04-09T09:43:47.826Z,75.30
2019-04-09T09:44:45.532Z,75.49
2019-04-09T09:45:46.157Z,75.30
2019-04-09T09:46:45.654Z,74.91
2019-04-09T09:47:47.784Z,74.34
2019-04-09T09:49:46.287Z,74.91
2019-04-09T09:50:45.468Z,74.63
2019-04-09T09:51:47.520Z,74.44
2019-04-09T09:52:45.178Z,74.44
2019-04-09T09:53:46.019Z,74.73
2019-04-09T09:54:45.085Z,74.73
2019-04-09T09:55:50.181Z,75.10
2019-04-09T09:56:45.642Z,74.38
2019-04-09T09:57:46.341Z,75.52
2019-04-09T09:58:47.431Z,74.76
2019-04-09T09:59:45.068Z,75.14
2019-04-09T10:00:44.813Z,74.57
2019-04-09T10:01:45.737Z,74.28
2019-04-09T10:02:46.013Z,72.75
2019-04-09T10:03:48.434Z,73.52
2019-04-09T10:04:44.635Z,73.71
2019-04-09T10:05:45.362Z,73.61
2019-04-09T10:06:48.970Z,72.85
2019-04-09T10:07:51.649Z,73.08
2019-04-09T10:08:48.299Z,72.60
2019-04-09T10:09:45.567Z,72.50
2019-04-09T10:10:47.395Z,71.64
2019-04-09T10:11:44.837Z,72.60
2019-04-09T10:12:48.710Z,72.12
2019-04-09T10:13:44.475Z,71.73
2019-04-09T10:14:44.207Z,71.93
2019-04-09T10:15:45.616Z,70.68
2019-04-09T10:16:47.826Z,70.97
2019-04-09T10:17:46.041Z,71.55
2019-04-09T10:18:56.074Z,72.12
2019-04-09T10:19:44.382Z,71.16
2019-04-09T10:20:46.221Z,70.87
2019-04-09T10:21:47.929Z,71.36
2019-04-09T10:22:43.834Z,71.16
2019-04-09T10:23:44.114Z,71.48
2019-04-09T10:24:44.049Z,71.45
2019-04-09T10:25:43.959Z,72.06
2019-04-09T10:26:44.284Z,70.81
2019-04-09T10:27:47.774Z,70.81
2019-04-09T10:28:43.985Z,70.62
2019-04-09T10:29:43.779Z,71.01
2019-04-09T10:30:47.357Z,70.81
2019-04-09T10:31:47.679Z,70.53
2019-04-09T10:32:43.400Z,70.34
2019-04-09T10:33:46.390Z,69.38
2019-04-09T10:34:43.303Z,69.86
2019-04-09T10:35:43.258Z,69.95
2019-04-09T10:36:43.435Z,70.34
2019-04-09T10:37:46.744Z,70.53
2019-04-09T10:38:43.313Z,70.72
2019-04-09T10:39:43.231Z,71.01
2019-04-09T10:40:43.034Z,70.62
2019-04-09T10:41:47.897Z,70.34
2019-04-09T10:42:43.109Z,69.76
2019-04-09T10:43:46.180Z,70.81
2019-04-09T10:44:46.472Z,70.62
2019-04-09T10:45:42.812Z,70.91
2019-04-09T10:46:42.771Z,71.01
2019-04-09T10:47:43.693Z,71.20
2019-04-09T10:48:45.982Z,70.18
2019-04-09T10:49:43.696Z,69.80
2019-04-09T10:50:44.890Z,69.70
2019-04-09T10:51:43.204Z,69.60
2019-04-09T10:52:42.501Z,69.26
2019-04-09T10:54:45.159Z,67.34
2019-04-09T10:55:42.371Z,66.86
2019-04-09T10:56:42.880Z,66.86
2019-04-09T10:57:42.997Z,67.85
2019-04-09T10:58:42.593Z,66.32
2019-04-09T10:59:44.726Z,67.18
2019-04-09T11:00:42.855Z,67.28
2019-04-09T11:01:45.311Z,66.32
2019-04-09T11:02:42.068Z,66.83
2019-04-09T11:03:42.910Z,64.92
2019-04-09T11:04:43.576Z,64.63
2019-04-09T11:05:42.319Z,64.72
2019-04-09T11:06:42.023Z,64.82
2019-04-09T11:07:44.940Z,64.92
2019-04-09T11:08:41.801Z,63.96
2019-04-09T11:09:41.761Z,64.15
2019-04-09T11:10:44.640Z,63.76
2019-04-09T11:11:41.678Z,63.96
2019-04-09T11:12:42.692Z,64.53
2019-04-09T11:13:43.414Z,64.34
2019-04-09T11:14:45.722Z,64.25
2019-04-09T11:15:42.651Z,63.38
2019-04-09T11:16:42.324Z,63.67
2019-04-09T11:17:42.781Z,64.63
2019-04-09T11:18:44.125Z,63.89
2019-04-09T11:19:41.559Z,63.12
2019-04-09T11:20:41.723Z,63.32
2019-04-09T11:21:43.996Z,63.42
2019-04-09T11:22:41.193Z,63.32
2019-04-09T11:23:41.151Z,62.45
2019-04-09T11:24:42.021Z,63.12
2019-04-09T11:25:41.768Z,62.65
2019-04-09T11:26:44.151Z,61.43
2019-04-09T11:27:42.424Z,61.43
2019-04-09T11:28:40.960Z,61.91
2019-04-09T11:29:41.309Z,62.19
2019-04-09T11:30:40.851Z,61.43
2019-04-09T11:31:47.837Z,61.81
2019-04-09T11:32:40.762Z,61.75
2019-04-09T11:33:42.106Z,61.55
2019-04-09T11:34:41.668Z,60.02
2019-04-09T11:35:40.851Z,59.92
2019-04-09T11:36:41.210Z,60.60
2019-04-09T11:37:41.466Z,59.57
2019-04-09T11:38:40.560Z,59.57
2019-04-09T11:39:40.662Z,59.28
2019-04-09T11:40:41.059Z,58.89
2019-04-09T11:41:41.215Z,58.80
2019-04-09T11:42:41.392Z,57.93
2019-04-09T11:43:40.515Z,57.75
2019-04-09T11:44:40.738Z,58.80
2019-04-09T11:45:40.209Z,58.22
2019-04-09T11:46:40.166Z,58.03
2019-04-09T11:47:41.113Z,58.42
2019-04-09T11:48:40.668Z,57.45
2019-04-09T11:49:40.037Z,57.87
2019-04-09T11:50:40.310Z,57.48
2019-04-09T11:51:39.957Z,57.48
2019-04-09T11:52:40.611Z,56.93
2019-04-09T11:53:39.910Z,56.74
2019-04-09T11:55:39.784Z,55.52
2019-04-09T11:56:40.114Z,54.56
2019-04-09T11:57:39.696Z,54.30
2019-04-09T11:58:39.654Z,53.23
2019-04-09T11:59:39.621Z,53.23
2019-04-09T12:00:39.703Z,52.85
2019-04-09T12:01:39.526Z,53.43
2019-04-09T12:02:39.485Z,53.27
2019-04-09T12:03:39.444Z,51.65
2019-04-09T12:04:40.200Z,50.81
2019-04-09T12:05:39.361Z,49.90
2019-04-09T12:06:39.581Z,48.57
2019-04-09T12:07:39.277Z,47.99
2019-04-09T12:08:39.247Z,48.18
2019-04-09T12:09:39.531Z,48.93
2019-04-09T12:10:39.153Z,49.02
2019-04-09T12:11:39.118Z,49.12
2019-04-09T12:12:40.083Z,48.81
2019-04-09T12:13:39.029Z,48.40
2019-04-09T12:14:40.078Z,49.55
2019-04-09T12:15:38.941Z,49.05
2019-04-09T12:16:39.535Z,50.21
2019-04-09T12:17:39.555Z,50.27
2019-04-09T12:18:39.856Z,50.66
2019-04-09T12:19:38.980Z,50.76
2019-04-09T12:20:38.761Z,50.95
2019-04-09T12:21:39.440Z,51.79
2019-04-09T12:22:39.662Z,51.43
2019-04-09T12:23:38.612Z,51.02
2019-04-09T12:24:39.590Z,51.62
2019-04-09T12:25:38.527Z,51.05
2019-04-09T12:26:39.053Z,51.14
2019-04-09T12:27:38.444Z,50.85
2019-04-09T12:28:39.355Z,50.98
2019-04-09T12:29:39.233Z,50.88
2019-04-09T12:30:38.329Z,50.78
2019-04-09T12:31:38.590Z,50.40
2019-04-09T12:32:38.239Z,49.46
2019-04-09T12:33:38.195Z,50.01
2019-04-09T12:34:38.162Z,49.53
2019-04-09T12:35:38.379Z,50.11
2019-04-09T12:37:38.027Z,49.82
2019-04-09T12:38:37.986Z,49.43
2019-04-09T12:39:38.096Z,49.15
2019-04-09T12:40:38.062Z,49.05
2019-04-09T12:41:37.864Z,49.51
2019-04-09T12:42:38.689Z,50.54
2019-04-09T12:43:38.782Z,50.73
2019-04-09T12:44:38.122Z,50.54
2019-04-09T12:45:38.394Z,51.12
2019-04-09T12:46:37.654Z,51.70
2019-04-09T12:47:37.866Z,51.41
2019-04-09T12:48:37.574Z,50.73
2019-04-09T12:49:37.864Z,51.89
2019-04-09T12:50:38.294Z,50.73
2019-04-09T12:51:37.472Z,50.71
2019-04-09T12:52:37.406Z,51.67
2019-04-09T12:53:38.356Z,51.57
2019-04-09T12:54:38.143Z,51.29
2019-04-09T12:55:37.284Z,52.92
2019-04-09T12:56:38.215Z,52.73
2019-04-09T12:57:37.700Z,53.21
2019-04-09T12:58:37.157Z,53.31
2019-04-09T12:59:37.268Z,52.63
2019-04-09T13:00:37.993Z,52.85
2019-04-09T13:01:37.029Z,51.89
2019-04-09T13:02:38.394Z,51.41
2019-04-09T13:03:37.527Z,51.89